sensor_id;sensor_type;location;lat;lon;timestamp;P1;durP1;ratioP1;P2;durP2;ratioP2
43933;SDS011;59081;42.706;23.306;2023-09-08T00:02:42;13.13;;;11.68;;
43933;SDS011;59081;42.706;23.306;2023-09-08T00:07:43;14.65;;;11.57;;
43933;SDS011;59081;42.706;23.306;2023-09-08T00:12:43;16.75;;;11.65;;
43933;SDS011;59081;42.706;23.306;2023-09-08T00:17:44;16.20;;;11.35;;
43933;SDS011;59081;42.706;23.306;2023-09-08T00:22:47;16.42;;;10.32;;
43933;SDS011;59081;42.706;23.306;2023-09-08T00:27:47;14.25;;;10.77;;
43933;SDS011;59081;42.706;23.306;2023-09-08T00:32:48;18.02;;;10.43;;
43933;SDS011;59081;42.706;23.306;2023-09-08T00:37:48;14.48;;;9.38;;
43933;SDS011;59081;42.706;23.306;2023-09-08T00:42:49;17.90;;;9.98;;
43933;SDS011;59081;42.706;23.306;2023-09-08T00:47:49;14.07;;;9.02;;
43933;SDS011;59081;42.706;23.306;2023-09-08T00:52:50;11.88;;;6.97;;
43933;SDS011;59081;42.706;23.306;2023-09-08T00:57:51;10.23;;;6.30;;
43933;SDS011;59081;42.706;23.306;2023-09-08T01:02:51;11.43;;;6.47;;
43933;SDS011;59081;42.706;23.306;2023-09-08T01:07:52;12.80;;;6.28;;
43933;SDS011;59081;42.706;23.306;2023-09-08T01:12:53;10.57;;;7.05;;
43933;SDS011;59081;42.706;23.306;2023-09-08T01:17:53;8.15;;;5.85;;
43933;SDS011;59081;42.706;23.306;2023-09-08T01:33:18;10.47;;;6.17;;
43933;SDS011;59081;42.706;23.306;2023-09-08T01:38:20;8.30;;;5.80;;
43933;SDS011;59081;42.706;23.306;2023-09-08T01:43:21;6.63;;;5.05;;
43933;SDS011;59081;42.706;23.306;2023-09-08T01:48:22;10.90;;;6.50;;
43933;SDS011;59081;42.706;23.306;2023-09-08T01:53:22;11.80;;;6.40;;
43933;SDS011;59081;42.706;23.306;2023-09-08T01:58:22;10.20;;;7.13;;
43933;SDS011;59081;42.706;23.306;2023-09-08T02:03:23;13.07;;;6.53;;
43933;SDS011;59081;42.706;23.306;2023-09-08T02:08:23;8.05;;;6.07;;
43933;SDS011;59081;42.706;23.306;2023-09-08T02:13:24;7.90;;;6.07;;
43933;SDS011;59081;42.706;23.306;2023-09-08T02:18:25;7.97;;;6.22;;
43933;SDS011;59081;42.706;23.306;2023-09-08T02:23:25;8.55;;;6.28;;
43933;SDS011;59081;42.706;23.306;2023-09-08T02:28:26;10.10;;;7.03;;
43933;SDS011;59081;42.706;23.306;2023-09-08T02:33:26;16.83;;;10.57;;
43933;SDS011;59081;42.706;23.306;2023-09-08T02:38:27;15.35;;;6.70;;
43933;SDS011;59081;42.706;23.306;2023-09-08T02:43:27;10.38;;;7.90;;
43933;SDS011;59081;42.706;23.306;2023-09-08T02:48:28;10.32;;;7.07;;
43933;SDS011;59081;42.706;23.306;2023-09-08T02:53:28;12.55;;;7.47;;
43933;SDS011;59081;42.706;23.306;2023-09-08T02:58:29;19.40;;;10.90;;
43933;SDS011;59081;42.706;23.306;2023-09-08T03:03:30;13.10;;;9.03;;
43933;SDS011;59081;42.706;23.306;2023-09-08T03:08:31;13.80;;;7.13;;
43933;SDS011;59081;42.706;23.306;2023-09-08T03:13:34;12.52;;;8.13;;
43933;SDS011;59081;42.706;23.306;2023-09-08T03:18:36;13.25;;;7.90;;
43933;SDS011;59081;42.706;23.306;2023-09-08T03:23:41;13.67;;;8.90;;
43933;SDS011;59081;42.706;23.306;2023-09-08T03:28:42;9.95;;;7.07;;
43933;SDS011;59081;42.706;23.306;2023-09-08T03:33:43;10.70;;;7.97;;
43933;SDS011;59081;42.706;23.306;2023-09-08T03:38:43;15.88;;;9.55;;
43933;SDS011;59081;42.706;23.306;2023-09-08T03:43:44;19.50;;;14.13;;
43933;SDS011;59081;42.706;23.306;2023-09-08T03:48:44;14.70;;;11.23;;
43933;SDS011;59081;42.706;23.306;2023-09-08T03:53:45;13.55;;;9.32;;
43933;SDS011;59081;42.706;23.306;2023-09-08T03:58:45;21.20;;;8.88;;
43933;SDS011;59081;42.706;23.306;2023-09-08T04:03:46;13.75;;;8.18;;
43933;SDS011;59081;42.706;23.306;2023-09-08T04:08:47;11.88;;;8.85;;
43933;SDS011;59081;42.706;23.306;2023-09-08T04:13:47;13.52;;;8.48;;
43933;SDS011;59081;42.706;23.306;2023-09-08T04:18:47;12.93;;;8.93;;
43933;SDS011;59081;42.706;23.306;2023-09-08T04:23:48;15.13;;;9.70;;
43933;SDS011;59081;42.706;23.306;2023-09-08T04:28:48;13.88;;;9.82;;
43933;SDS011;59081;42.706;23.306;2023-09-08T04:33:49;16.83;;;9.48;;
43933;SDS011;59081;42.706;23.306;2023-09-08T04:38:49;26.40;;;17.48;;
43933;SDS011;59081;42.706;23.306;2023-09-08T04:43:49;26.80;;;19.83;;
43933;SDS011;59081;42.706;23.306;2023-09-08T04:48:52;23.67;;;16.15;;
43933;SDS011;59081;42.706;23.306;2023-09-08T04:53:52;19.70;;;12.23;;
43933;SDS011;59081;42.706;23.306;2023-09-08T04:58:53;16.73;;;10.85;;
43933;SDS011;59081;42.706;23.306;2023-09-08T05:03:55;18.35;;;10.20;;
43933;SDS011;59081;42.706;23.306;2023-09-08T05:08:55;19.98;;;9.73;;
43933;SDS011;59081;42.706;23.306;2023-09-08T05:13:56;15.25;;;9.57;;
43933;SDS011;59081;42.706;23.306;2023-09-08T05:18:57;20.23;;;10.57;;
43933;SDS011;59081;42.706;23.306;2023-09-08T05:23:58;14.52;;;9.18;;
43933;SDS011;59081;42.706;23.306;2023-09-08T05:28:58;17.23;;;9.35;;
43933;SDS011;59081;42.706;23.306;2023-09-08T05:33:59;14.40;;;9.52;;
43933;SDS011;59081;42.706;23.306;2023-09-08T05:38:59;17.80;;;9.60;;
43933;SDS011;59081;42.706;23.306;2023-09-08T05:44:00;12.43;;;8.70;;
43933;SDS011;59081;42.706;23.306;2023-09-08T05:49:01;16.70;;;9.30;;
43933;SDS011;59081;42.706;23.306;2023-09-08T05:54:01;17.45;;;9.02;;
43933;SDS011;59081;42.706;23.306;2023-09-08T05:59:01;10.80;;;6.57;;
43933;SDS011;59081;42.706;23.306;2023-09-08T06:04:02;11.60;;;6.55;;
43933;SDS011;59081;42.706;23.306;2023-09-08T06:09:03;10.30;;;6.13;;
43933;SDS011;59081;42.706;23.306;2023-09-08T06:14:05;8.15;;;4.50;;
43933;SDS011;59081;42.706;23.306;2023-09-08T06:19:06;14.27;;;5.57;;
43933;SDS011;59081;42.706;23.306;2023-09-08T06:24:07;8.68;;;5.13;;
43933;SDS011;59081;42.706;23.306;2023-09-08T06:29:07;7.90;;;4.90;;
43933;SDS011;59081;42.706;23.306;2023-09-08T06:34:08;9.48;;;3.67;;
43933;SDS011;59081;42.706;23.306;2023-09-08T06:39:08;7.05;;;4.38;;
43933;SDS011;59081;42.706;23.306;2023-09-08T06:44:08;10.07;;;4.90;;
43933;SDS011;59081;42.706;23.306;2023-09-08T06:49:09;9.05;;;4.40;;
43933;SDS011;59081;42.706;23.306;2023-09-08T06:54:09;8.68;;;4.80;;
43933;SDS011;59081;42.706;23.306;2023-09-08T06:59:10;4.80;;;2.97;;
43933;SDS011;59081;42.706;23.306;2023-09-08T07:04:10;9.90;;;4.25;;
43933;SDS011;59081;42.706;23.306;2023-09-08T07:09:11;7.85;;;3.90;;
43933;SDS011;59081;42.706;23.306;2023-09-08T07:14:11;5.50;;;3.50;;
43933;SDS011;59081;42.706;23.306;2023-09-08T07:19:12;5.35;;;3.13;;
43933;SDS011;59081;42.706;23.306;2023-09-08T07:24:12;6.70;;;3.47;;
43933;SDS011;59081;42.706;23.306;2023-09-08T07:29:13;4.45;;;3.28;;
43933;SDS011;59081;42.706;23.306;2023-09-08T07:34:13;7.45;;;2.80;;
43933;SDS011;59081;42.706;23.306;2023-09-08T07:39:14;7.63;;;3.30;;
43933;SDS011;59081;42.706;23.306;2023-09-08T07:44:14;4.63;;;2.73;;
43933;SDS011;59081;42.706;23.306;2023-09-08T07:49:15;8.93;;;2.90;;
43933;SDS011;59081;42.706;23.306;2023-09-08T07:54:15;6.37;;;3.80;;
43933;SDS011;59081;42.706;23.306;2023-09-08T07:59:16;6.67;;;2.60;;
43933;SDS011;59081;42.706;23.306;2023-09-08T08:04:16;7.07;;;2.90;;
43933;SDS011;59081;42.706;23.306;2023-09-08T08:09:17;4.03;;;3.03;;
43933;SDS011;59081;42.706;23.306;2023-09-08T08:14:17;8.33;;;2.93;;
43933;SDS011;59081;42.706;23.306;2023-09-08T08:19:17;4.30;;;2.40;;
43933;SDS011;59081;42.706;23.306;2023-09-08T08:24:18;6.00;;;3.40;;
43933;SDS011;59081;42.706;23.306;2023-09-08T08:29:19;5.95;;;3.22;;
43933;SDS011;59081;42.706;23.306;2023-09-08T08:34:20;4.17;;;2.60;;
43933;SDS011;59081;42.706;23.306;2023-09-08T08:39:20;5.83;;;3.63;;
43933;SDS011;59081;42.706;23.306;2023-09-08T08:44:21;6.40;;;3.50;;
43933;SDS011;59081;42.706;23.306;2023-09-08T08:49:23;3.45;;;2.85;;
43933;SDS011;59081;42.706;23.306;2023-09-08T08:54:24;6.73;;;3.30;;
43933;SDS011;59081;42.706;23.306;2023-09-08T08:59:24;5.40;;;3.10;;
43933;SDS011;59081;42.706;23.306;2023-09-08T09:04:25;5.77;;;2.13;;
43933;SDS011;59081;42.706;23.306;2023-09-08T09:09:26;4.73;;;2.60;;
43933;SDS011;59081;42.706;23.306;2023-09-08T09:14:31;4.50;;;2.90;;
43933;SDS011;59081;42.706;23.306;2023-09-08T09:19:33;5.20;;;2.90;;
43933;SDS011;59081;42.706;23.306;2023-09-08T09:24:36;5.75;;;2.55;;
43933;SDS011;59081;42.706;23.306;2023-09-08T09:29:44;12.77;;;3.45;;
43933;SDS011;59081;42.706;23.306;2023-09-08T09:34:50;7.68;;;3.80;;
43933;SDS011;59081;42.706;23.306;2023-09-08T09:39:56;8.00;;;3.60;;
43933;SDS011;59081;42.706;23.306;2023-09-08T09:44:57;7.07;;;3.67;;
43933;SDS011;59081;42.706;23.306;2023-09-08T09:49:57;5.27;;;3.83;;
43933;SDS011;59081;42.706;23.306;2023-09-08T09:54:58;5.33;;;2.60;;
43933;SDS011;59081;42.706;23.306;2023-09-08T09:59:59;6.27;;;3.10;;
43933;SDS011;59081;42.706;23.306;2023-09-08T10:05:11;7.13;;;3.30;;
43933;SDS011;59081;42.706;23.306;2023-09-08T10:10:13;5.60;;;3.40;;
43933;SDS011;59081;42.706;23.306;2023-09-08T10:15:13;7.00;;;3.03;;
43933;SDS011;59081;42.706;23.306;2023-09-08T10:20:19;5.93;;;3.85;;
43933;SDS011;59081;42.706;23.306;2023-09-08T10:25:24;4.88;;;3.15;;
43933;SDS011;59081;42.706;23.306;2023-09-08T10:30:24;9.20;;;3.33;;
43933;SDS011;59081;42.706;23.306;2023-09-08T10:35:25;7.40;;;3.90;;
43933;SDS011;59081;42.706;23.306;2023-09-08T10:40:26;6.10;;;3.60;;
43933;SDS011;59081;42.706;23.306;2023-09-08T10:45:29;12.80;;;3.58;;
43933;SDS011;59081;42.706;23.306;2023-09-08T10:50:31;8.18;;;3.10;;
43933;SDS011;59081;42.706;23.306;2023-09-08T10:55:37;4.95;;;2.55;;
43933;SDS011;59081;42.706;23.306;2023-09-08T11:00:53;4.95;;;3.22;;
43933;SDS011;59081;42.706;23.306;2023-09-08T11:05:59;4.07;;;3.05;;
43933;SDS011;59081;42.706;23.306;2023-09-08T11:10:59;8.20;;;3.30;;
43933;SDS011;59081;42.706;23.306;2023-09-08T11:16:01;10.07;;;3.53;;
43933;SDS011;59081;42.706;23.306;2023-09-08T11:21:03;4.20;;;2.78;;
43933;SDS011;59081;42.706;23.306;2023-09-08T11:26:07;5.50;;;3.10;;
43933;SDS011;59081;42.706;23.306;2023-09-08T11:31:10;8.02;;;3.58;;
43933;SDS011;59081;42.706;23.306;2023-09-08T11:36:13;9.88;;;3.45;;
43933;SDS011;59081;42.706;23.306;2023-09-08T11:41:16;6.65;;;3.35;;
43933;SDS011;59081;42.706;23.306;2023-09-08T11:46:17;5.90;;;3.30;;
43933;SDS011;59081;42.706;23.306;2023-09-08T11:51:22;8.87;;;3.83;;
43933;SDS011;59081;42.706;23.306;2023-09-08T11:56:23;6.45;;;3.20;;
43933;SDS011;59081;42.706;23.306;2023-09-08T12:01:23;5.37;;;2.57;;
43933;SDS011;59081;42.706;23.306;2023-09-08T12:06:25;5.13;;;3.72;;
43933;SDS011;59081;42.706;23.306;2023-09-08T12:11:31;5.20;;;3.58;;
43933;SDS011;59081;42.706;23.306;2023-09-08T12:16:32;9.15;;;3.50;;
43933;SDS011;59081;42.706;23.306;2023-09-08T12:21:35;6.23;;;4.27;;
43933;SDS011;59081;42.706;23.306;2023-09-08T12:26:53;5.22;;;3.47;;
43933;SDS011;59081;42.706;23.306;2023-09-08T12:31:53;8.47;;;3.03;;
43933;SDS011;59081;42.706;23.306;2023-09-08T12:36:57;4.43;;;3.27;;
43933;SDS011;59081;42.706;23.306;2023-09-08T12:41:57;8.13;;;3.20;;
43933;SDS011;59081;42.706;23.306;2023-09-08T12:46:58;10.60;;;3.43;;
43933;SDS011;59081;42.706;23.306;2023-09-08T12:51:58;7.43;;;3.33;;
43933;SDS011;59081;42.706;23.306;2023-09-08T12:56:59;5.60;;;3.63;;
43933;SDS011;59081;42.706;23.306;2023-09-08T13:01:59;4.33;;;3.20;;
43933;SDS011;59081;42.706;23.306;2023-09-08T13:07:00;5.40;;;3.73;;
43933;SDS011;59081;42.706;23.306;2023-09-08T13:17:02;4.78;;;2.92;;
43933;SDS011;59081;42.706;23.306;2023-09-08T13:22:03;10.93;;;3.17;;
43933;SDS011;59081;42.706;23.306;2023-09-08T13:27:04;9.20;;;3.08;;
43933;SDS011;59081;42.706;23.306;2023-09-08T13:32:05;6.67;;;3.47;;
43933;SDS011;59081;42.706;23.306;2023-09-08T13:37:06;6.07;;;3.03;;
43933;SDS011;59081;42.706;23.306;2023-09-08T13:42:06;6.13;;;3.73;;
43933;SDS011;59081;42.706;23.306;2023-09-08T13:47:08;5.68;;;3.65;;
43933;SDS011;59081;42.706;23.306;2023-09-08T13:52:09;6.33;;;3.40;;
43933;SDS011;59081;42.706;23.306;2023-09-08T13:57:09;5.18;;;4.00;;
43933;SDS011;59081;42.706;23.306;2023-09-08T14:02:10;6.10;;;3.20;;
43933;SDS011;59081;42.706;23.306;2023-09-08T14:07:11;7.13;;;3.67;;
43933;SDS011;59081;42.706;23.306;2023-09-08T14:12:11;6.70;;;3.30;;
43933;SDS011;59081;42.706;23.306;2023-09-08T14:17:12;7.97;;;4.67;;
43933;SDS011;59081;42.706;23.306;2023-09-08T14:22:12;7.67;;;3.93;;
43933;SDS011;59081;42.706;23.306;2023-09-08T14:27:13;4.93;;;3.07;;
43933;SDS011;59081;42.706;23.306;2023-09-08T14:32:13;8.07;;;3.30;;
43933;SDS011;59081;42.706;23.306;2023-09-08T14:37:14;8.57;;;3.37;;
43933;SDS011;59081;42.706;23.306;2023-09-08T14:42:15;6.45;;;3.80;;
43933;SDS011;59081;42.706;23.306;2023-09-08T14:47:16;11.85;;;3.45;;
43933;SDS011;59081;42.706;23.306;2023-09-08T14:52:16;6.27;;;3.20;;
43933;SDS011;59081;42.706;23.306;2023-09-08T14:57:20;8.90;;;3.83;;
43933;SDS011;59081;42.706;23.306;2023-09-08T15:02:21;5.83;;;3.30;;
43933;SDS011;59081;42.706;23.306;2023-09-08T15:07:22;10.48;;;2.97;;
43933;SDS011;59081;42.706;23.306;2023-09-08T15:12:23;5.03;;;3.30;;
43933;SDS011;59081;42.706;23.306;2023-09-08T15:17:23;6.70;;;3.17;;
43933;SDS011;59081;42.706;23.306;2023-09-08T15:22:24;8.53;;;3.33;;
43933;SDS011;59081;42.706;23.306;2023-09-08T15:27:24;9.33;;;4.03;;
43933;SDS011;59081;42.706;23.306;2023-09-08T15:32:25;7.30;;;3.30;;
43933;SDS011;59081;42.706;23.306;2023-09-08T15:37:25;8.30;;;3.47;;
43933;SDS011;59081;42.706;23.306;2023-09-08T15:42:25;4.63;;;3.10;;
43933;SDS011;59081;42.706;23.306;2023-09-08T15:47:26;9.37;;;4.10;;
43933;SDS011;59081;42.706;23.306;2023-09-08T15:52:26;6.10;;;3.60;;
43933;SDS011;59081;42.706;23.306;2023-09-08T15:57:27;13.43;;;4.00;;
43933;SDS011;59081;42.706;23.306;2023-09-08T16:02:28;5.77;;;3.67;;
43933;SDS011;59081;42.706;23.306;2023-09-08T16:07:28;4.50;;;3.47;;
43933;SDS011;59081;42.706;23.306;2023-09-08T16:12:29;5.93;;;3.67;;
43933;SDS011;59081;42.706;23.306;2023-09-08T16:17:31;5.60;;;3.03;;
43933;SDS011;59081;42.706;23.306;2023-09-08T16:22:32;8.50;;;3.57;;
43933;SDS011;59081;42.706;23.306;2023-09-08T16:27:32;7.30;;;3.67;;
43933;SDS011;59081;42.706;23.306;2023-09-08T16:32:33;6.23;;;3.10;;
43933;SDS011;59081;42.706;23.306;2023-09-08T16:37:33;4.50;;;2.93;;
43933;SDS011;59081;42.706;23.306;2023-09-08T16:42:34;13.20;;;3.73;;
43933;SDS011;59081;42.706;23.306;2023-09-08T16:47:34;5.87;;;4.03;;
43933;SDS011;59081;42.706;23.306;2023-09-08T16:52:35;15.90;;;4.33;;
43933;SDS011;59081;42.706;23.306;2023-09-08T16:57:35;4.67;;;3.60;;
43933;SDS011;59081;42.706;23.306;2023-09-08T17:02:36;6.13;;;4.57;;
43933;SDS011;59081;42.706;23.306;2023-09-08T17:07:37;6.63;;;4.20;;
43933;SDS011;59081;42.706;23.306;2023-09-08T17:12:38;5.07;;;3.97;;
43933;SDS011;59081;42.706;23.306;2023-09-08T17:17:39;7.53;;;4.05;;
43933;SDS011;59081;42.706;23.306;2023-09-08T17:22:39;6.47;;;4.60;;
43933;SDS011;59081;42.706;23.306;2023-09-08T17:27:41;9.27;;;4.27;;
43933;SDS011;59081;42.706;23.306;2023-09-08T17:32:43;6.30;;;4.05;;
43933;SDS011;59081;42.706;23.306;2023-09-08T17:37:43;6.37;;;3.77;;
43933;SDS011;59081;42.706;23.306;2023-09-08T17:42:43;9.30;;;5.90;;
43933;SDS011;59081;42.706;23.306;2023-09-08T17:47:44;7.55;;;4.63;;
43933;SDS011;59081;42.706;23.306;2023-09-08T17:52:45;11.93;;;4.83;;
43933;SDS011;59081;42.706;23.306;2023-09-08T17:57:45;6.55;;;4.18;;
43933;SDS011;59081;42.706;23.306;2023-09-08T18:02:45;8.45;;;4.10;;
43933;SDS011;59081;42.706;23.306;2023-09-08T18:07:46;7.85;;;4.57;;
43933;SDS011;59081;42.706;23.306;2023-09-08T18:12:46;20.00;;;5.75;;
43933;SDS011;59081;42.706;23.306;2023-09-08T18:17:47;14.00;;;5.05;;
43933;SDS011;59081;42.706;23.306;2023-09-08T18:22:47;16.90;;;12.00;;
43933;SDS011;59081;42.706;23.306;2023-09-08T18:27:48;10.35;;;5.40;;
43933;SDS011;59081;42.706;23.306;2023-09-08T18:32:48;16.27;;;8.95;;
43933;SDS011;59081;42.706;23.306;2023-09-08T18:37:49;13.02;;;5.50;;
43933;SDS011;59081;42.706;23.306;2023-09-08T18:42:49;19.38;;;11.82;;
43933;SDS011;59081;42.706;23.306;2023-09-08T18:48:18;8.63;;;6.80;;
43933;SDS011;59081;42.706;23.306;2023-09-08T18:54:00;9.15;;;5.55;;
43933;SDS011;59081;42.706;23.306;2023-09-08T19:10:22;8.48;;;5.28;;
43933;SDS011;59081;42.706;23.306;2023-09-08T19:16:10;12.20;;;6.15;;
43933;SDS011;59081;42.706;23.306;2023-09-08T19:27:43;9.60;;;6.68;;
43933;SDS011;59081;42.706;23.306;2023-09-08T19:33:07;17.23;;;11.25;;
43933;SDS011;59081;42.706;23.306;2023-09-08T19:38:36;15.13;;;10.00;;
43933;SDS011;59081;42.706;23.306;2023-09-08T19:49:38;7.82;;;6.22;;
43933;SDS011;59081;42.706;23.306;2023-09-08T19:54:59;8.93;;;5.25;;
43933;SDS011;59081;42.706;23.306;2023-09-08T20:06:14;7.27;;;4.63;;
43933;SDS011;59081;42.706;23.306;2023-09-08T20:11:41;6.85;;;4.60;;
43933;SDS011;59081;42.706;23.306;2023-09-08T20:17:00;8.43;;;5.35;;
43933;SDS011;59081;42.706;23.306;2023-09-08T20:22:59;11.48;;;8.05;;
43933;SDS011;59081;42.706;23.306;2023-09-08T20:28:46;7.63;;;3.92;;
43933;SDS011;59081;42.706;23.306;2023-09-08T20:34:19;7.50;;;5.85;;
43933;SDS011;59081;42.706;23.306;2023-09-08T20:46:11;7.72;;;3.85;;
43933;SDS011;59081;42.706;23.306;2023-09-08T21:14:50;6.40;;;5.15;;
43933;SDS011;59081;42.706;23.306;2023-09-08T21:20:40;14.48;;;9.60;;
43933;SDS011;59081;42.706;23.306;2023-09-08T21:25:41;11.18;;;6.05;;
43933;SDS011;59081;42.706;23.306;2023-09-08T21:30:42;7.88;;;4.90;;
43933;SDS011;59081;42.706;23.306;2023-09-08T21:35:45;7.53;;;5.07;;
43933;SDS011;59081;42.706;23.306;2023-09-08T21:40:52;8.15;;;4.32;;
43933;SDS011;59081;42.706;23.306;2023-09-08T21:46:05;11.23;;;7.45;;
43933;SDS011;59081;42.706;23.306;2023-09-08T21:51:08;6.05;;;4.07;;
43933;SDS011;59081;42.706;23.306;2023-09-08T21:56:11;10.15;;;7.35;;
43933;SDS011;59081;42.706;23.306;2023-09-08T22:01:21;7.78;;;4.68;;
43933;SDS011;59081;42.706;23.306;2023-09-08T22:06:27;8.18;;;4.97;;
43933;SDS011;59081;42.706;23.306;2023-09-08T22:11:32;9.60;;;4.13;;
43933;SDS011;59081;42.706;23.306;2023-09-08T22:16:33;6.75;;;4.05;;
43933;SDS011;59081;42.706;23.306;2023-09-08T22:21:34;7.18;;;4.20;;
43933;SDS011;59081;42.706;23.306;2023-09-08T22:26:35;11.35;;;4.25;;
43933;SDS011;59081;42.706;23.306;2023-09-08T22:31:38;8.48;;;3.90;;
43933;SDS011;59081;42.706;23.306;2023-09-08T22:36:39;12.68;;;4.18;;
43933;SDS011;59081;42.706;23.306;2023-09-08T22:41:47;8.63;;;3.50;;
43933;SDS011;59081;42.706;23.306;2023-09-08T22:46:52;8.15;;;4.38;;
43933;SDS011;59081;42.706;23.306;2023-09-08T22:51:55;7.68;;;4.32;;
43933;SDS011;59081;42.706;23.306;2023-09-08T22:57:02;7.18;;;4.05;;
43933;SDS011;59081;42.706;23.306;2023-09-08T23:02:03;7.95;;;4.00;;
43933;SDS011;59081;42.706;23.306;2023-09-08T23:07:07;12.60;;;4.53;;
43933;SDS011;59081;42.706;23.306;2023-09-08T23:12:20;7.00;;;3.97;;
43933;SDS011;59081;42.706;23.306;2023-09-08T23:17:20;7.80;;;4.57;;
43933;SDS011;59081;42.706;23.306;2023-09-08T23:22:30;8.05;;;4.22;;
43933;SDS011;59081;42.706;23.306;2023-09-08T23:27:34;10.52;;;3.88;;
43933;SDS011;59081;42.706;23.306;2023-09-08T23:32:40;10.50;;;4.25;;
43933;SDS011;59081;42.706;23.306;2023-09-08T23:37:47;10.38;;;4.35;;
43933;SDS011;59081;42.706;23.306;2023-09-08T23:42:47;6.75;;;4.22;;
43933;SDS011;59081;42.706;23.306;2023-09-08T23:47:54;10.80;;;5.18;;
43933;SDS011;59081;42.706;23.306;2023-09-08T23:52:57;8.40;;;5.43;;
43933;SDS011;59081;42.706;23.306;2023-09-08T23:58:00;6.18;;;4.60;;
